Terminal Aerodrome Forecast
Issued by NWS Grand Forks, ND

Home | Current Version | Previous Version | Graphics & Text | Print | Product List | Glossary On
Versions: 1 2 3 4 5 6 7 8 9 10 11 12 13 14 15 16 17 18
000
FTUS43 KFGF 231136
TAFGFK
TAF
KGFK 231136Z 2312/2412 15013G23KT P6SM VCTS BKN070CB
     FM231300 18013G23KT P6SM BKN080
     FM231800 19012KT P6SM SCT080
     FM232100 22013KT P6SM SCT080
     FM232300 26011KT P6SM BKN090
     FM240300 29007KT P6SM SCT150
     FM241100 26006KT P6SM SKC=

USA.gov is the U.S. government's official web portal to all federal, state and local government web resources and services.